Time;durP1;ratioP1;P1;durP2;ratioP2;P2;SDS_P1;SDS_P2;PMS_P1;PMS_P2;Temp;Humidity;BMP_temperature;BMP_pressure;BME280_temperature;BME280_humidity;BME280_pressure;Samples;Min_cycle;Max_cycle;Signal;HPM_P1;HPM_P2
2021/05/30 00:00:12;;;;;;;11.85;7.90;;;14.40;89.90;;;;;;5053183;28;20182;-83
2021/05/30 00:02:38;;;;;;;13.40;8.27;;;14.40;89.90;;;;;;5054530;28;20419;-82
2021/05/30 00:05:05;;;;;;;13.73;8.23;;;14.30;90.00;;;;;;5053837;28;20053;-82
2021/05/30 00:07:31;;;;;;;13.40;8.20;;;14.30;90.00;;;;;;5053434;28;20056;-82
2021/05/30 00:09:57;;;;;;;13.48;8.90;;;14.30;90.00;;;;;;5053771;28;20118;-82
2021/05/30 00:12:22;;;;;;;14.95;8.68;;;14.20;90.00;;;;;;5054281;28;20056;-82
2021/05/30 00:14:48;;;;;;;13.63;8.60;;;14.20;90.10;;;;;;5053485;28;20044;-82
2021/05/30 00:17:15;;;;;;;13.80;9.02;;;14.20;89.80;;;;;;5053624;28;20220;-82
2021/05/30 00:19:41;;;;;;;14.70;8.70;;;14.20;89.70;;;;;;5053507;28;20124;-83
2021/05/30 00:22:07;;;;;;;14.07;8.82;;;14.20;90.00;;;;;;5052830;28;20486;-82
2021/05/30 00:24:33;;;;;;;15.20;8.80;;;14.10;89.80;;;;;;5053891;28;20052;-82
2021/05/30 00:26:59;;;;;;;13.15;9.05;;;14.10;89.80;;;;;;5052913;28;20053;-82
2021/05/30 00:29:25;;;;;;;12.60;8.73;;;14.10;90.00;;;;;;5053321;28;20049;-82
2021/05/30 00:31:52;;;;;;;15.85;8.80;;;14.10;90.00;;;;;;5053687;28;20048;-82
2021/05/30 00:34:18;;;;;;;12.98;8.70;;;14.10;90.10;;;;;;5052986;28;20044;-82
2021/05/30 00:36:43;;;;;;;13.52;8.68;;;14.10;90.00;;;;;;5053460;28;20048;-83
2021/05/30 00:39:09;;;;;;;14.13;8.82;;;14.00;89.50;;;;;;5053122;28;20090;-83
2021/05/30 00:41:35;;;;;;;13.02;9.40;;;14.00;89.50;;;;;;5052665;28;20455;-82
2021/05/30 00:44:00;;;;;;;14.85;9.20;;;14.00;89.80;;;;;;5053177;28;20489;-82
2021/05/30 00:46:26;;;;;;;12.85;8.57;;;14.00;90.00;;;;;;5053563;28;20045;-82
2021/05/30 00:48:52;;;;;;;14.73;8.88;;;13.90;89.80;;;;;;5052051;28;20114;-82
2021/05/30 00:51:18;;;;;;;15.07;9.38;;;13.90;90.00;;;;;;5053612;28;20476;-82
2021/05/30 00:53:44;;;;;;;13.80;8.80;;;13.90;90.00;;;;;;5053408;28;20053;-82
2021/05/30 00:56:14;;;;;;;14.98;9.05;;;13.90;90.10;;;;;;5052221;28;20049;-82
2021/05/30 00:58:40;;;;;;;11.57;8.63;;;13.90;90.10;;;;;;5053352;28;20445;-82
2021/05/30 01:01:06;;;;;;;11.95;8.50;;;13.80;90.00;;;;;;5052731;28;20053;-83
2021/05/30 01:03:37;;;;;;;14.15;8.82;;;13.80;90.20;;;;;;5052343;28;20134;-82
2021/05/30 01:06:04;;;;;;;12.73;8.40;;;13.80;90.20;;;;;;5052881;28;20041;-82
2021/05/30 01:08:30;;;;;;;13.23;9.02;;;13.80;90.20;;;;;;5052509;28;20040;-82
2021/05/30 01:10:59;;;;;;;14.95;8.48;;;13.80;90.30;;;;;;5051945;28;20453;-82
2021/05/30 01:13:27;;;;;;;11.77;7.82;;;13.70;90.20;;;;;;5053070;28;20122;-82
2021/05/30 01:15:53;;;;;;;13.75;8.50;;;13.70;90.20;;;;;;5052602;28;20132;-82
2021/05/30 01:18:23;;;;;;;12.25;8.52;;;13.70;90.30;;;;;;5051714;28;20057;-83
2021/05/30 01:20:51;;;;;;;13.77;8.00;;;13.60;90.30;;;;;;5052851;28;20053;-83
2021/05/30 01:23:18;;;;;;;13.57;8.63;;;13.60;90.20;;;;;;5052082;28;20396;-83
2021/05/30 01:25:45;;;;;;;14.80;8.40;;;13.60;90.30;;;;;;5052813;28;20057;-83
2021/05/30 01:28:16;;;;;;;13.90;7.90;;;13.60;90.30;;;;;;5052387;28;20049;-84
2021/05/30 01:30:44;;;;;;;11.55;8.13;;;13.60;90.30;;;;;;5052522;28;20041;-83
2021/05/30 01:33:10;;;;;;;11.65;7.60;;;13.50;90.30;;;;;;5052592;28;20052;-84
2021/05/30 01:35:36;;;;;;;12.63;8.40;;;13.50;90.10;;;;;;5052706;28;20099;-83
2021/05/30 01:38:02;;;;;;;11.82;7.93;;;13.50;90.10;;;;;;5051543;28;20056;-83
2021/05/30 01:40:28;;;;;;;11.77;7.88;;;13.50;90.20;;;;;;5052395;28;20045;-84
2021/05/30 01:42:55;;;;;;;12.35;8.13;;;13.50;90.20;;;;;;5052303;28;20064;-83
2021/05/30 01:45:22;;;;;;;13.05;7.95;;;13.40;89.80;;;;;;5051999;28;20049;-82
2021/05/30 01:47:48;;;;;;;12.30;8.27;;;13.40;89.70;;;;;;5052027;28;20033;-82
2021/05/30 01:50:19;;;;;;;14.27;8.15;;;13.40;90.00;;;;;;5052042;28;20087;-83
2021/05/30 01:52:46;;;;;;;13.48;8.93;;;13.40;90.20;;;;;;5051797;28;20049;-83
2021/05/30 01:55:26;;;;;;;13.35;8.52;;;13.30;90.20;;;;;;5052173;28;20151;-82
2021/05/30 01:57:54;;;;;;;12.48;8.40;;;13.30;90.30;;;;;;5052235;28;20049;-82
2021/05/30 02:00:21;;;;;;;14.60;9.20;;;13.30;90.20;;;;;;5051359;28;20060;-82
2021/05/30 02:02:55;;;;;;;13.23;8.70;;;13.30;90.20;;;;;;5052612;28;20390;-82
2021/05/30 02:05:22;;;;;;;15.73;9.25;;;13.20;90.30;;;;;;5051692;28;20053;-82
2021/05/30 02:07:49;;;;;;;15.15;9.23;;;13.20;90.30;;;;;;5052203;28;20053;-82
2021/05/30 02:10:17;;;;;;;15.57;8.95;;;13.20;90.40;;;;;;5052068;28;20477;-83
2021/05/30 02:12:46;;;;;;;15.48;9.68;;;13.20;90.40;;;;;;5051377;28;20489;-83
2021/05/30 02:15:12;;;;;;;14.40;9.52;;;13.20;90.40;;;;;;5052176;28;20135;-82
2021/05/30 02:17:39;;;;;;;15.98;9.48;;;13.20;90.40;;;;;;5051795;28;20508;-82
2021/05/30 02:20:09;;;;;;;15.30;9.82;;;13.10;90.40;;;;;;5052300;28;20056;-83
2021/05/30 02:22:36;;;;;;;16.20;10.23;;;13.20;90.50;;;;;;5056219;28;20064;-83
2021/05/30 02:25:02;;;;;;;13.95;9.93;;;13.10;90.50;;;;;;5055975;28;20049;-83
2021/05/30 02:27:28;;;;;;;14.93;10.10;;;13.10;90.50;;;;;;5054882;28;20047;-82
2021/05/30 02:29:54;;;;;;;14.68;10.60;;;13.10;90.50;;;;;;5055934;28;20052;-83
2021/05/30 02:32:20;;;;;;;16.10;10.35;;;13.10;90.50;;;;;;5056126;28;20052;-82
2021/05/30 02:34:46;;;;;;;17.15;10.90;;;13.10;90.50;;;;;;5054997;28;20413;-82
2021/05/30 02:37:18;;;;;;;14.13;10.77;;;13.10;90.50;;;;;;5055441;28;20049;-82
2021/05/30 02:39:45;;;;;;;15.40;10.15;;;13.00;90.60;;;;;;5055608;28;20106;-82
2021/05/30 02:42:11;;;;;;;15.73;11.07;;;13.00;90.60;;;;;;5054700;28;20049;-82
2021/05/30 02:44:37;;;;;;;16.58;10.80;;;13.00;90.60;;;;;;5055856;28;20052;-82
2021/05/30 02:47:03;;;;;;;15.85;10.88;;;12.90;90.50;;;;;;5055019;28;20096;-82
2021/05/30 02:49:32;;;;;;;14.32;10.95;;;12.90;90.50;;;;;;5055038;28;20127;-82
2021/05/30 02:51:59;;;;;;;15.57;11.55;;;12.90;90.60;;;;;;5055387;28;20048;-82
2021/05/30 02:54:25;;;;;;;16.55;11.38;;;12.90;90.60;;;;;;5055463;28;20449;-82
2021/05/30 02:56:51;;;;;;;16.13;11.38;;;12.80;90.50;;;;;;5055127;28;20136;-82
2021/05/30 02:59:17;;;;;;;17.45;12.43;;;12.80;90.50;;;;;;5055672;28;20132;-82
2021/05/30 03:01:42;;;;;;;16.17;11.70;;;12.80;90.60;;;;;;5054525;28;20114;-82
2021/05/30 03:04:08;;;;;;;15.05;10.95;;;12.70;90.50;;;;;;5055182;28;20171;-83
2021/05/30 03:06:34;;;;;;;17.58;11.88;;;12.70;90.60;;;;;;5055345;28;20554;-82
2021/05/30 03:09:00;;;;;;;16.27;11.18;;;12.70;90.50;;;;;;5054331;28;20077;-82
2021/05/30 03:11:26;;;;;;;18.42;11.90;;;12.70;90.40;;;;;;5055306;28;20053;-82
2021/05/30 03:13:52;;;;;;;17.65;12.13;;;12.60;90.50;;;;;;5055144;28;20045;-82
2021/05/30 03:16:18;;;;;;;18.75;11.60;;;12.60;90.70;;;;;;5054245;28;20068;-82
2021/05/30 03:18:44;;;;;;;19.55;12.60;;;12.60;90.60;;;;;;5055078;28;20053;-82
2021/05/30 03:21:11;;;;;;;17.15;12.02;;;12.50;90.70;;;;;;5054686;28;20045;-82
2021/05/30 03:23:36;;;;;;;17.42;12.85;;;12.50;90.70;;;;;;5054077;28;20404;-82
2021/05/30 03:26:03;;;;;;;15.65;11.40;;;12.50;90.70;;;;;;5054911;28;20045;-82
2021/05/30 03:28:30;;;;;;;16.25;11.35;;;12.50;90.70;;;;;;5055046;28;20119;-82
2021/05/30 03:30:56;;;;;;;21.67;13.32;;;12.40;90.70;;;;;;5053383;28;20497;-82
2021/05/30 03:33:22;;;;;;;18.23;12.85;;;12.40;90.80;;;;;;5054923;28;20045;-82
2021/05/30 03:35:47;;;;;;;16.58;12.68;;;12.30;90.90;;;;;;5054925;28;20500;-82
2021/05/30 03:38:16;;;;;;;16.83;12.55;;;12.30;90.80;;;;;;5053616;28;20044;-82
2021/05/30 03:43:08;;;;;;;15.07;12.13;;;12.20;90.90;;;;;;5054394;28;20055;-82
2021/05/30 03:45:35;;;;;;;16.25;12.43;;;12.20;90.90;;;;;;5053688;28;20047;-82
2021/05/30 03:48:01;;;;;;;19.65;12.38;;;12.10;90.90;;;;;;5053940;28;20049;-82
2021/05/30 03:50:27;;;;;;;17.63;12.52;;;12.10;90.90;;;;;;5054603;28;20068;-82
2021/05/30 03:52:53;;;;;;;15.85;12.82;;;12.10;91.00;;;;;;5053060;28;20052;-82
2021/05/30 03:55:22;;;;;;;18.45;12.57;;;12.10;91.10;;;;;;5054636;28;20049;-82
2021/05/30 03:57:47;;;;;;;18.05;12.95;;;12.00;90.90;;;;;;5053743;28;20045;-83
2021/05/30 04:00:18;;;;;;;17.95;12.70;;;12.00;91.00;;;;;;5053914;28;20060;-82
2021/05/30 04:02:45;;;;;;;17.25;12.63;;;11.90;91.10;;;;;;5054355;28;20049;-82
2021/05/30 04:05:12;;;;;;;18.42;12.32;;;11.90;91.10;;;;;;5053070;28;20061;-82
2021/05/30 04:07:40;;;;;;;17.48;12.18;;;11.80;91.00;;;;;;5054505;28;20071;-82
2021/05/30 04:10:08;;;;;;;17.23;13.00;;;11.80;91.00;;;;;;5054076;28;20087;-82
2021/05/30 04:12:35;;;;;;;17.38;12.57;;;11.80;91.00;;;;;;5052811;28;20504;-82
2021/05/30 04:15:00;;;;;;;19.30;12.63;;;11.70;91.00;;;;;;5053822;28;20053;-82
2021/05/30 04:17:29;;;;;;;17.40;12.32;;;11.70;91.00;;;;;;5053957;28;20056;-82
2021/05/30 04:19:54;;;;;;;16.90;13.13;;;11.70;91.00;;;;;;5052777;28;20052;-82
2021/05/30 04:22:20;;;;;;;17.38;12.07;;;11.60;91.10;;;;;;5054140;28;20053;-82
2021/05/30 04:24:46;;;;;;;15.73;12.95;;;11.60;91.00;;;;;;5054028;28;20052;-82
2021/05/30 04:27:12;;;;;;;16.27;12.02;;;11.60;91.20;;;;;;5053071;28;20127;-82
2021/05/30 04:29:37;;;;;;;16.60;12.45;;;11.50;90.90;;;;;;5053992;28;20053;-82
2021/05/30 04:32:04;;;;;;;17.25;12.77;;;11.50;91.00;;;;;;5053136;28;20053;-82
2021/05/30 04:34:30;;;;;;;18.25;13.32;;;11.40;91.10;;;;;;5052709;28;20237;-83
2021/05/30 04:36:56;;;;;;;16.52;13.20;;;11.50;91.20;;;;;;5053702;28;20045;-82
2021/05/30 04:39:22;;;;;;;18.10;13.10;;;11.50;91.40;;;;;;5053759;28;20045;-82
2021/05/30 04:41:47;;;;;;;19.58;13.48;;;11.40;91.50;;;;;;5053347;28;20045;-82
2021/05/30 04:44:13;;;;;;;19.60;13.70;;;11.40;91.60;;;;;;5052626;28;20052;-82
2021/05/30 04:46:39;;;;;;;17.38;13.25;;;11.40;91.60;;;;;;5053470;28;20041;-83
2021/05/30 04:49:05;;;;;;;17.55;12.82;;;11.40;91.70;;;;;;5052208;28;20136;-83
2021/05/30 04:51:30;;;;;;;20.50;13.40;;;11.40;91.70;;;;;;5053319;28;20063;-83
2021/05/30 04:53:58;;;;;;;16.80;12.68;;;11.40;91.70;;;;;;5053049;28;20064;-83
2021/05/30 04:56:24;;;;;;;17.13;12.35;;;11.30;91.50;;;;;;5052314;28;20041;-82
2021/05/30 04:58:50;;;;;;;17.88;12.93;;;11.30;91.40;;;;;;5053417;28;20048;-82
2021/05/30 05:01:16;;;;;;;20.80;13.38;;;11.30;91.30;;;;;;5051490;28;20497;-82
2021/05/30 05:03:42;;;;;;;19.08;13.35;;;11.30;91.60;;;;;;5053114;28;20060;-82
2021/05/30 05:06:08;;;;;;;17.73;13.00;;;11.30;91.50;;;;;;5052755;28;20053;-82
2021/05/30 05:08:34;;;;;;;19.08;12.32;;;11.20;91.40;;;;;;5052381;28;20067;-82
2021/05/30 05:11:00;;;;;;;19.33;12.73;;;11.20;91.10;;;;;;5052444;28;20047;-81
2021/05/30 05:13:26;;;;;;;19.23;12.65;;;11.30;91.20;;;;;;5053121;28;20099;-82
2021/05/30 05:15:53;;;;;;;19.23;12.73;;;11.20;91.10;;;;;;5052069;28;20041;-82
2021/05/30 05:18:23;;;;;;;17.90;12.13;;;11.20;91.10;;;;;;5052825;28;20566;-82
2021/05/30 05:20:50;;;;;;;18.45;12.20;;;11.20;91.20;;;;;;5053060;28;20044;-82
2021/05/30 05:23:17;;;;;;;16.63;12.48;;;11.20;91.00;;;;;;5052034;28;20056;-82
2021/05/30 05:25:43;;;;;;;16.60;12.07;;;11.20;91.30;;;;;;5052860;28;20049;-82
2021/05/30 05:28:09;;;;;;;17.63;12.82;;;11.20;91.40;;;;;;5052437;28;20146;-82
2021/05/30 05:30:35;;;;;;;19.15;13.15;;;11.20;91.20;;;;;;5051514;28;20037;-81
2021/05/30 05:33:02;;;;;;;19.77;13.23;;;11.20;91.30;;;;;;5052162;28;20057;-82
2021/05/30 05:35:28;;;;;;;20.77;13.77;;;11.20;91.40;;;;;;5052065;28;20041;-82
2021/05/30 05:37:58;;;;;;;16.95;13.48;;;11.20;91.40;;;;;;5050374;28;20080;-82
2021/05/30 05:40:25;;;;;;;22.42;14.05;;;11.20;91.80;;;;;;5052291;28;20451;-82
2021/05/30 05:42:55;;;;;;;20.33;13.40;;;11.20;91.70;;;;;;5052466;28;20420;-82
2021/05/30 05:45:22;;;;;;;22.10;13.77;;;11.20;91.70;;;;;;5051316;28;20476;-80
2021/05/30 05:47:56;;;;;;;21.55;13.60;;;11.20;91.70;;;;;;5052202;28;20476;-81
2021/05/30 05:50:23;;;;;;;17.63;13.40;;;11.30;91.90;;;;;;5051328;28;20045;-85
2021/05/30 05:52:50;;;;;;;19.02;13.90;;;11.30;91.80;;;;;;5052788;28;20156;-85
2021/05/30 05:55:16;;;;;;;18.95;13.50;;;11.30;91.60;;;;;;5051793;28;20037;-86
2021/05/30 05:57:43;;;;;;;18.58;13.80;;;11.30;91.40;;;;;;5051694;28;20079;-85
2021/05/30 06:00:12;;;;;;;20.90;14.55;;;11.30;91.60;;;;;;5051965;28;20045;-82
2021/05/30 06:02:38;;;;;;;18.65;13.48;;;11.30;91.90;;;;;;5052184;28;20052;-82
2021/05/30 06:05:05;;;;;;;19.33;13.68;;;11.30;91.80;;;;;;5050002;28;20055;-83
2021/05/30 06:07:31;;;;;;;23.45;13.32;;;11.30;91.90;;;;;;5048006;28;20049;-84
2021/05/30 06:09:56;;;;;;;18.08;13.50;;;11.40;91.60;;;;;;5050544;28;20443;-82
2021/05/30 06:12:22;;;;;;;19.02;13.65;;;11.40;91.60;;;;;;5049834;28;20123;-83
2021/05/30 06:14:48;;;;;;;17.02;12.50;;;11.40;91.50;;;;;;5051131;28;20072;-82
2021/05/30 06:17:13;;;;;;;17.58;12.63;;;11.40;91.40;;;;;;5048065;28;20455;-82
2021/05/30 06:19:40;;;;;;;22.73;13.55;;;11.50;91.30;;;;;;5050133;28;20539;-83
2021/05/30 06:22:06;;;;;;;23.13;13.13;;;11.50;91.20;;;;;;5050652;28;20505;-83
2021/05/30 06:24:32;;;;;;;22.80;13.35;;;11.50;91.10;;;;;;5050998;28;20080;-82
2021/05/30 06:26:59;;;;;;;26.50;12.45;;;11.60;91.30;;;;;;5051035;28;20064;-83
2021/05/30 06:29:24;;;;;;;18.80;13.07;;;11.70;91.00;;;;;;5051839;28;20056;-83
2021/05/30 06:31:51;;;;;;;18.60;13.25;;;11.70;91.10;;;;;;5051242;28;20788;-82
2021/05/30 06:34:17;;;;;;;22.85;14.13;;;11.80;91.30;;;;;;5050677;28;20090;-85
2021/05/30 06:36:44;;;;;;;24.30;13.55;;;11.90;91.60;;;;;;5051702;28;20045;-83
2021/05/30 06:39:10;;;;;;;19.15;13.60;;;12.00;91.80;;;;;;5051308;28;20126;-84
2021/05/30 06:41:37;;;;;;;21.25;14.98;;;12.10;91.90;;;;;;5050922;28;20052;-83
2021/05/30 06:44:05;;;;;;;21.25;12.73;;;12.20;92.30;;;;;;5052582;28;20053;-94
2021/05/30 06:46:31;;;;;;;19.60;12.60;;;12.30;92.20;;;;;;5052690;28;20053;-92
2021/05/30 06:48:57;;;;;;;20.77;11.57;;;12.40;92.10;;;;;;5051415;28;20504;-91
2021/05/30 06:51:27;;;;;;;18.02;12.57;;;12.40;91.30;;;;;;5052456;28;20045;-90
2021/05/30 06:53:52;;;;;;;21.55;13.10;;;12.60;91.60;;;;;;5050898;28;20570;-86
2021/05/30 06:56:18;;;;;;;21.73;12.18;;;12.60;91.60;;;;;;5051720;28;20053;-86
2021/05/30 06:58:47;;;;;;;22.83;12.13;;;12.70;91.70;;;;;;5052139;28;20132;-87
2021/05/30 07:01:16;;;;;;;19.65;12.60;;;12.90;91.60;;;;;;5051194;28;20057;-86
2021/05/30 07:03:42;;;;;;;17.77;10.77;;;13.00;91.60;;;;;;5051992;28;20568;-86
2021/05/30 07:06:08;;;;;;;21.95;11.45;;;13.10;91.30;;;;;;5052441;28;20136;-86
2021/05/30 07:08:54;;;;;;;17.60;10.75;;;13.20;90.80;;;;;;5052724;28;20132;-85
2021/05/30 07:11:23;;;;;;;18.08;10.98;;;13.20;90.50;;;;;;5055603;28;20132;-85
2021/05/30 07:13:48;;;;;;;18.45;11.05;;;13.30;90.70;;;;;;5055183;28;20044;-85
2021/05/30 07:16:14;;;;;;;17.42;10.50;;;13.40;90.70;;;;;;5054029;28;20049;-85
2021/05/30 07:18:46;;;;;;;14.75;10.98;;;13.50;90.60;;;;;;5055219;28;20056;-85
2021/05/30 07:21:18;;;;;;;17.88;10.55;;;13.60;90.40;;;;;;5054881;28;20186;-85
2021/05/30 07:23:43;;;;;;;17.13;10.30;;;13.70;90.50;;;;;;5054198;28;20041;-84
2021/05/30 07:26:13;;;;;;;23.75;11.18;;;13.80;90.20;;;;;;5054856;28;20550;-85
2021/05/30 07:28:39;;;;;;;16.65;10.13;;;13.80;89.30;;;;;;5055007;28;20049;-83
2021/05/30 07:31:07;;;;;;;16.17;10.35;;;13.90;89.70;;;;;;5054494;28;20550;-85
2021/05/30 07:33:33;;;;;;;14.43;10.25;;;14.00;89.70;;;;;;5054982;28;20131;-85
2021/05/30 07:36:02;;;;;;;19.65;11.18;;;14.00;89.80;;;;;;5054027;28;20053;-88
2021/05/30 07:38:27;;;;;;;14.90;10.57;;;14.10;87.50;;;;;;5054810;28;20506;-88
2021/05/30 07:40:53;;;;;;;17.55;10.73;;;14.10;89.40;;;;;;5036464;28;20045;-84
2021/05/30 07:43:19;;;;;;;16.70;10.75;;;14.20;89.20;;;;;;5054239;28;20135;-84
2021/05/30 07:45:44;;;;;;;16.05;9.80;;;14.30;88.90;;;;;;5055036;28;20041;-84
2021/05/30 07:48:16;;;;;;;14.90;10.40;;;14.40;87.90;;;;;;5054492;28;20051;-84
2021/05/30 07:50:47;;;;;;;15.10;10.80;;;14.40;88.20;;;;;;5053934;28;20450;-84
2021/05/30 07:53:13;;;;;;;15.30;9.68;;;14.50;89.20;;;;;;5053981;28;20084;-84
2021/05/30 07:55:52;;;;;;;17.02;10.43;;;14.70;89.80;;;;;;5054183;28;20070;-84
2021/05/30 07:58:18;;;;;;;15.95;10.10;;;14.80;90.10;;;;;;5053721;28;20048;-84
2021/05/30 08:00:48;;;;;;;17.52;10.32;;;14.90;90.20;;;;;;5054391;28;20060;-84
2021/05/30 08:03:13;;;;;;;17.45;10.25;;;15.00;90.20;;;;;;5054374;28;20409;-85
2021/05/30 08:05:39;;;;;;;14.90;10.25;;;15.10;90.20;;;;;;5053707;28;20041;-85
2021/05/30 08:08:05;;;;;;;16.33;9.90;;;15.20;90.00;;;;;;5054101;28;20052;-84
2021/05/30 08:10:31;;;;;;;17.33;9.60;;;15.20;88.80;;;;;;5054458;28;20481;-85
2021/05/30 08:12:56;;;;;;;16.30;10.07;;;15.30;88.10;;;;;;5053220;28;20045;-85
2021/05/30 08:15:23;;;;;;;14.38;9.68;;;15.40;88.80;;;;;;5054325;28;20045;-86
2021/05/30 08:17:51;;;;;;;17.10;9.50;;;15.50;89.20;;;;;;5052974;28;20473;-86
2021/05/30 08:20:20;;;;;;;17.15;10.15;;;15.60;88.30;;;;;;5053302;28;20076;-86
2021/05/30 08:22:49;;;;;;;16.92;10.23;;;15.70;88.70;;;;;;5054184;28;20048;-84
2021/05/30 08:25:17;;;;;;;17.02;10.73;;;15.80;87.80;;;;;;5052648;28;20159;-84
2021/05/30 08:27:44;;;;;;;14.77;9.95;;;15.80;86.80;;;;;;5054065;28;20045;-83
2021/05/30 08:30:11;;;;;;;16.92;10.23;;;15.90;85.60;;;;;;5053866;28;20125;-83
2021/05/30 08:32:38;;;;;;;16.35;9.57;;;16.00;87.00;;;;;;5052477;28;20052;-87
2021/05/30 08:35:05;;;;;;;17.92;9.73;;;16.10;84.90;;;;;;5053376;28;20045;-86
2021/05/30 08:37:32;;;;;;;15.93;9.13;;;16.20;85.00;;;;;;5053928;28;20049;-84
2021/05/30 08:39:58;;;;;;;13.70;10.27;;;16.30;84.70;;;;;;5052893;28;20484;-82
2021/05/30 08:42:24;;;;;;;15.65;9.80;;;16.40;85.20;;;;;;5053749;28;20091;-84
2021/05/30 08:44:53;;;;;;;14.15;9.77;;;16.40;83.30;;;;;;5053397;28;20052;-82
2021/05/30 08:47:25;;;;;;;18.60;10.23;;;16.50;85.00;;;;;;5052953;28;20053;-82
2021/05/30 08:49:51;;;;;;;18.20;9.65;;;16.60;84.50;;;;;;5053112;28;20060;-82
2021/05/30 08:52:18;;;;;;;13.98;9.63;;;16.60;85.10;;;;;;5053276;28;20037;-82
2021/05/30 08:54:47;;;;;;;12.98;8.75;;;16.70;85.60;;;;;;5052038;28;20105;-82
2021/05/30 08:57:15;;;;;;;18.05;8.82;;;16.80;85.40;;;;;;5052311;28;20496;-82
2021/05/30 09:00:03;;;;;;;14.02;8.70;;;16.90;83.90;;;;;;5036522;28;20045;-82
2021/05/30 09:02:29;;;;;;;14.02;8.30;;;17.00;82.20;;;;;;5051006;28;20489;-82
2021/05/30 09:05:02;;;;;;;15.95;8.93;;;17.10;83.10;;;;;;5052174;28;20124;-83
2021/05/30 09:07:47;;;;;;;16.10;9.48;;;17.20;83.20;;;;;;5053022;28;20052;-90
2021/05/30 09:10:14;;;;;;;14.75;8.18;;;17.30;84.10;;;;;;5053308;28;20049;-83
2021/05/30 09:12:43;;;;;;;15.98;8.40;;;17.40;83.00;;;;;;5053116;28;20512;-83
2021/05/30 09:15:48;;;;;;;16.75;8.52;;;17.40;80.20;;;;;;5051963;28;20045;-83
2021/05/30 09:18:18;;;;;;;14.02;8.52;;;17.50;79.50;;;;;;5053062;28;20049;-83
2021/05/30 09:21:01;;;;;;;12.60;7.55;;;17.50;81.30;;;;;;5053265;28;20045;-84
2021/05/30 09:23:29;;;;;;;14.90;7.53;;;17.60;80.80;;;;;;5052271;28;20041;-83
2021/05/30 09:26:18;;;;;;;14.30;8.63;;;17.70;80.50;;;;;;5052647;28;20072;-83
2021/05/30 09:29:02;;;;;;;15.80;7.35;;;17.80;81.10;;;;;;5050632;28;20045;-81
2021/05/30 09:31:28;;;;;;;19.63;7.95;;;17.90;81.50;;;;;;5048981;28;20067;-80
2021/05/30 09:33:54;;;;;;;14.27;7.18;;;18.00;80.10;;;;;;5052067;28;20055;-80
2021/05/30 09:36:23;;;;;;;11.82;6.57;;;18.10;80.70;;;;;;5051708;28;20041;-81
2021/05/30 09:39:04;;;;;;;17.75;7.15;;;18.10;79.30;;;;;;5050817;28;20049;-81
2021/05/30 09:41:29;;;;;;;18.75;6.80;;;18.30;79.40;;;;;;5051486;28;20119;-81
2021/05/30 09:43:55;;;;;;;12.35;6.93;;;18.40;78.40;;;;;;5050365;28;20127;-81
2021/05/30 09:46:22;;;;;;;13.18;5.78;;;18.40;80.50;;;;;;5051439;28;20048;-81
2021/05/30 09:48:51;;;;;;;13.73;6.20;;;18.50;77.40;;;;;;5051079;28;20509;-81
2021/05/30 09:51:27;;;;;;;14.00;6.57;;;18.60;78.50;;;;;;5047945;28;20481;-81
2021/05/30 09:54:06;;;;;;;12.68;6.78;;;18.70;78.40;;;;;;5050922;28;20127;-82
2021/05/30 09:56:37;;;;;;;13.13;6.53;;;18.80;79.50;;;;;;5050436;28;20119;-82
2021/05/30 09:59:06;;;;;;;11.85;6.30;;;18.90;79.20;;;;;;5050671;28;20504;-82
2021/05/30 10:01:48;;;;;;;12.52;6.00;;;19.00;78.00;;;;;;5050848;28;20049;-82
2021/05/30 10:04:18;;;;;;;15.07;6.15;;;19.00;75.90;;;;;;5048044;28;20064;-82
2021/05/30 10:06:44;;;;;;;12.25;6.75;;;19.10;76.30;;;;;;5051209;28;20397;-82
2021/05/30 10:09:11;;;;;;;15.70;6.45;;;19.20;77.80;;;;;;5051251;28;20051;-82
2021/05/30 10:11:38;;;;;;;10.95;6.47;;;19.30;77.40;;;;;;5033146;28;20386;-81
2021/05/30 10:14:04;;;;;;;15.02;6.55;;;19.40;78.40;;;;;;5051798;28;20053;-82
2021/05/30 10:16:31;;;;;;;17.63;7.50;;;19.60;78.50;;;;;;5052583;28;20053;-81
2021/05/30 10:19:02;;;;;;;9.10;5.70;;;19.70;78.40;;;;;;5050622;28;20489;-81
2021/05/30 10:21:29;;;;;;;14.65;6.80;;;19.70;76.80;;;;;;5051878;28;20053;-81
2021/05/30 10:23:55;;;;;;;13.70;6.18;;;19.80;77.30;;;;;;5051614;28;20053;-81
2021/05/30 10:26:22;;;;;;;12.10;6.45;;;19.80;75.50;;;;;;5051472;28;20041;-82
2021/05/30 10:29:17;;;;;;;12.43;6.13;;;19.90;76.30;;;;;;5052160;28;20140;-82
2021/05/30 10:31:45;;;;;;;12.80;6.55;;;19.90;76.00;;;;;;5051665;28;20071;-82
2021/05/30 10:34:11;;;;;;;13.30;6.75;;;20.00;77.10;;;;;;5051563;28;20041;-81
2021/05/30 10:36:55;;;;;;;13.00;6.75;;;20.20;77.00;;;;;;5052047;28;20128;-82
2021/05/30 10:39:33;;;;;;;12.48;6.18;;;20.30;76.90;;;;;;5051613;28;20053;-81
2021/05/30 10:42:23;;;;;;;15.85;6.60;;;20.40;72.10;;;;;;5054493;28;20102;-81
2021/05/30 10:44:54;;;;;;;12.10;6.75;;;20.40;70.00;;;;;;5055967;28;20409;-81
2021/05/30 10:47:40;;;;;;;14.00;6.32;;;20.40;73.10;;;;;;5055017;28;20445;-81
2021/05/30 10:50:10;;;;;;;12.23;6.93;;;20.40;72.50;;;;;;5055341;28;20057;-81
2021/05/30 10:52:38;;;;;;;11.50;6.70;;;20.50;75.20;;;;;;5055916;28;20055;-82
2021/05/30 10:55:12;;;;;;;16.88;6.68;;;20.60;75.70;;;;;;5054782;28;20048;-82
2021/05/30 10:57:42;;;;;;;12.48;6.53;;;20.70;74.60;;;;;;5055626;28;20055;-83
2021/05/30 11:00:20;;;;;;;16.80;6.57;;;20.70;73.10;;;;;;5054209;28;20950;-83
2021/05/30 11:03:07;;;;;;;13.27;6.28;;;20.80;71.40;;;;;;5055712;28;20507;-82
2021/05/30 11:05:50;;;;;;;15.30;6.93;;;20.80;71.80;;;;;;5055772;28;20438;-82
2021/05/30 11:08:30;;;;;;;13.35;6.80;;;20.90;71.60;;;;;;5054310;28;20049;-82
2021/05/30 11:11:11;;;;;;;11.93;6.57;;;21.00;72.30;;;;;;5055208;28;20049;-82
2021/05/30 11:13:53;;;;;;;14.02;6.78;;;21.10;74.10;;;;;;5055634;28;20049;-82
2021/05/30 11:16:29;;;;;;;12.25;6.25;;;21.20;74.10;;;;;;5046584;28;20151;-81
2021/05/30 11:18:58;;;;;;;13.25;6.57;;;21.30;71.30;;;;;;5054949;28;20049;-81
2021/05/30 11:21:34;;;;;;;12.75;6.53;;;21.40;71.60;;;;;;5054592;28;20077;-82
2021/05/30 11:24:05;;;;;;;10.73;6.20;;;21.40;71.50;;;;;;5054802;28;20136;-81
2021/05/30 11:26:31;;;;;;;14.95;6.75;;;21.60;72.00;;;;;;5055095;28;20084;-81
2021/05/30 11:28:58;;;;;;;11.57;6.45;;;21.70;69.90;;;;;;5052715;28;20087;-82
2021/05/30 11:31:24;;;;;;;13.65;6.80;;;21.70;69.80;;;;;;5027411;28;20051;-81
2021/05/30 11:33:57;;;;;;;11.50;5.57;;;21.60;69.20;;;;;;5054603;28;20087;-83
2021/05/30 11:36:23;;;;;;;13.35;5.50;;;21.60;66.70;;;;;;5054070;28;20045;-82
2021/05/30 11:38:52;;;;;;;10.05;5.50;;;21.50;66.40;;;;;;5054684;28;20099;-81
2021/05/30 11:41:33;;;;;;;12.18;5.93;;;21.30;65.40;;;;;;5054860;28;20479;-81
2021/05/30 11:44:02;;;;;;;11.55;5.47;;;21.20;67.80;;;;;;5053766;28;20111;-81
2021/05/30 11:46:31;;;;;;;10.23;5.30;;;21.20;68.00;;;;;;5054394;28;20608;-81
2021/05/30 11:49:04;;;;;;;9.57;5.60;;;21.20;68.10;;;;;;5053903;28;20045;-82
2021/05/30 11:52:04;;;;;;;12.00;5.63;;;21.30;70.30;;;;;;5051844;28;20481;-83
2021/05/30 11:54:45;;;;;;;11.63;5.45;;;21.40;69.50;;;;;;5054886;28;20110;-83
2021/05/30 11:57:18;;;;;;;10.02;5.53;;;21.50;70.70;;;;;;5052997;28;20052;-84
2021/05/30 11:59:57;;;;;;;10.68;5.22;;;21.60;71.80;;;;;;5053500;28;20068;-85
2021/05/30 12:02:37;;;;;;;11.65;5.75;;;21.70;66.80;;;;;;5053592;28;20514;-86
2021/05/30 12:05:03;;;;;;;10.07;5.28;;;21.80;70.10;;;;;;5053078;28;20127;-87
2021/05/30 12:07:29;;;;;;;9.35;5.28;;;21.80;70.10;;;;;;5053880;28;20037;-82
2021/05/30 12:09:58;;;;;;;13.02;5.47;;;21.90;71.90;;;;;;5054072;28;20103;-81
2021/05/30 12:12:27;;;;;;;8.05;4.97;;;22.00;73.20;;;;;;5053443;28;20055;-83
2021/05/30 12:15:20;;;;;;;11.70;5.15;;;22.20;73.90;;;;;;5054335;28;20094;-89
2021/05/30 12:17:54;;;;;;;8.57;4.78;;;22.30;75.30;;;;;;5033545;28;20053;-82
2021/05/30 12:20:26;;;;;;;9.65;5.18;;;22.40;74.90;;;;;;5034327;28;20050;-82
2021/05/30 12:22:52;;;;;;;9.45;4.93;;;22.60;75.10;;;;;;5034025;28;20053;-83
2021/05/30 12:25:18;;;;;;;11.23;5.20;;;22.70;75.60;;;;;;5044417;28;20053;-82
2021/05/30 12:27:44;;;;;;;9.73;4.30;;;22.80;76.50;;;;;;5054237;28;20069;-83
2021/05/30 12:30:14;;;;;;;10.32;4.65;;;22.80;71.80;;;;;;5053948;28;20102;-83
2021/05/30 12:32:49;;;;;;;8.63;4.50;;;22.90;71.30;;;;;;5053308;28;20105;-83
2021/05/30 12:35:15;;;;;;;10.27;4.13;;;22.90;74.30;;;;;;5053620;28;20523;-83
2021/05/30 12:37:43;;;;;;;9.35;4.57;;;23.00;72.40;;;;;;5053880;28;20048;-83
2021/05/30 12:40:14;;;;;;;8.65;4.20;;;23.10;70.80;;;;;;5052787;28;20051;-83
2021/05/30 12:42:40;;;;;;;7.72;4.20;;;23.10;72.90;;;;;;5053826;28;20128;-83